createdAt,value
2022-08-09T00:00:04.928Z,55.46
2022-08-09T00:02:42.841Z,55.92
2022-08-09T00:06:19.383Z,55.37
2022-08-09T00:08:10.836Z,55.30
2022-08-09T00:10:40.291Z,55.70
2022-08-09T00:13:16.699Z,56.00
2022-08-09T00:16:00.084Z,56.02
2022-08-09T00:18:34.594Z,55.72
2022-08-09T00:21:04.650Z,56.01
2022-08-09T00:23:56.723Z,56.52
2022-08-09T00:26:29.494Z,56.18
2022-08-09T00:29:00.920Z,56.16
2022-08-09T00:31:59.150Z,56.22
2022-08-09T00:34:19.490Z,55.94
2022-08-09T00:36:48.907Z,55.71
2022-08-09T00:40:09.274Z,56.83
2022-08-09T00:44:10.959Z,56.39
2022-08-09T00:44:53.955Z,57.02
2022-08-09T00:47:24.577Z,56.66
2022-08-09T00:49:54.826Z,56.51
2022-08-09T00:52:30.044Z,57.09
2022-08-09T00:55:00.349Z,56.98
2022-08-09T00:57:34.914Z,57.04
2022-08-09T01:00:20.400Z,57.26
2022-08-09T01:02:54.853Z,57.69
2022-08-09T01:05:51.883Z,58.02
2022-08-09T01:08:27.042Z,57.84
2022-08-09T01:11:08.523Z,58.16
2022-08-09T01:13:59.494Z,57.72
2022-08-09T01:16:35.281Z,57.48
2022-08-09T01:19:16.652Z,57.91
2022-08-09T01:22:00.057Z,57.96
2022-08-09T01:24:39.147Z,58.10
2022-08-09T01:27:11.248Z,58.19
2022-08-09T01:29:56.106Z,58.86
2022-08-09T01:32:34.141Z,59.23
2022-08-09T01:35:28.239Z,58.83
2022-08-09T01:38:07.815Z,59.17
2022-08-09T01:40:53.097Z,59.39
2022-08-09T01:43:51.218Z,59.50
2022-08-09T01:46:24.737Z,59.58
2022-08-09T01:48:56.829Z,59.42
2022-08-09T01:51:26.712Z,59.19
2022-08-09T01:53:58.268Z,59.32
2022-08-09T01:56:28.594Z,59.38
2022-08-09T01:58:59.970Z,59.46
2022-08-09T02:01:30.664Z,58.91
2022-08-09T02:04:19.285Z,59.20
2022-08-09T02:07:18.156Z,58.95
2022-08-09T02:10:05.023Z,59.05
2022-08-09T02:12:35.261Z,58.61
2022-08-09T02:15:11.741Z,57.99
2022-08-09T02:18:01.600Z,57.89
2022-08-09T02:20:41.829Z,57.92
2022-08-09T02:23:16.954Z,58.31
2022-08-09T02:25:52.792Z,59.13
2022-08-09T02:28:30.425Z,59.90
2022-08-09T02:31:05.998Z,59.38
2022-08-09T02:37:24.263Z,58.79
2022-08-09T02:40:05.187Z,59.89
2022-08-09T02:42:42.352Z,60.01
2022-08-09T02:45:28.719Z,60.22
2022-08-09T02:48:19.484Z,60.83
2022-08-09T02:51:02.582Z,62.02
2022-08-09T02:53:34.663Z,60.88
2022-08-09T02:56:10.271Z,61.18
2022-08-09T02:58:40.392Z,61.25
2022-08-09T03:01:15.225Z,61.14
2022-08-09T03:04:17.806Z,60.80
2022-08-09T03:06:48.911Z,60.89
2022-08-09T03:09:17.831Z,61.04
2022-08-09T03:12:05.450Z,61.04
2022-08-09T03:14:36.781Z,60.97
2022-08-09T03:17:05.689Z,61.11
2022-08-09T03:19:58.503Z,61.34
2022-08-09T03:22:41.523Z,60.97
2022-08-09T03:25:21.865Z,61.40
2022-08-09T03:28:00.971Z,61.29
2022-08-09T03:30:33.874Z,60.88
2022-08-09T03:33:16.806Z,61.01
2022-08-09T03:36:13.172Z,61.03
2022-08-09T03:38:42.117Z,61.29
2022-08-09T03:41:15.685Z,61.46
2022-08-09T03:44:03.573Z,61.21
2022-08-09T03:46:34.911Z,61.32
2022-08-09T03:49:07.918Z,62.08
2022-08-09T03:51:55.815Z,61.58
2022-08-09T03:54:29.123Z,60.87
2022-08-09T03:56:58.957Z,60.78
2022-08-09T03:59:42.813Z,60.57
2022-08-09T04:02:11.628Z,60.45
2022-08-09T04:04:46.340Z,60.22
2022-08-09T04:07:17.635Z,60.24
2022-08-09T04:09:50.277Z,60.35
2022-08-09T04:12:44.394Z,60.25
2022-08-09T04:15:29.680Z,60.21
2022-08-09T04:18:01.907Z,59.87
2022-08-09T04:20:29.920Z,59.33
2022-08-09T04:23:02.225Z,59.18
2022-08-09T04:25:30.415Z,59.12
2022-08-09T04:28:02.400Z,59.29
2022-08-09T04:30:31.811Z,59.41
2022-08-09T04:33:01.796Z,59.23
2022-08-09T04:35:32.634Z,58.81
2022-08-09T04:38:03.714Z,60.51
2022-08-09T04:40:45.793Z,60.94
2022-08-09T04:43:14.297Z,60.02
2022-08-09T04:45:53.610Z,60.14
2022-08-09T04:48:23.877Z,59.74
2022-08-09T04:51:01.600Z,59.67
2022-08-09T04:53:31.403Z,60.06
2022-08-09T04:56:00.571Z,60.42
2022-08-09T04:58:28.977Z,60.19
2022-08-09T05:00:58.244Z,61.00
2022-08-09T05:03:43.163Z,60.75
2022-08-09T05:06:21.832Z,60.82
2022-08-09T05:09:00.393Z,60.75
2022-08-09T05:11:32.170Z,60.63
2022-08-09T05:14:05.941Z,60.46
2022-08-09T05:16:58.260Z,60.02
2022-08-09T05:19:25.581Z,60.15
2022-08-09T05:21:55.489Z,59.58
2022-08-09T05:24:25.956Z,56.19
2022-08-09T05:26:54.360Z,53.08
2022-08-09T05:29:24.164Z,51.12
2022-08-09T05:31:58.349Z,50.01
2022-08-09T05:34:32.117Z,49.11
2022-08-09T05:37:04.933Z,48.56
2022-08-09T05:39:43.380Z,47.77
2022-08-09T05:42:20.555Z,47.12
2022-08-09T05:44:51.501Z,46.41
2022-08-09T05:47:21.379Z,45.68
2022-08-09T05:50:30.059Z,45.56
2022-08-09T05:52:38.872Z,45.35
2022-08-09T05:55:20.808Z,45.06
2022-08-09T05:57:56.442Z,44.50
2022-08-09T06:00:26.988Z,43.99
2022-08-09T06:02:57.573Z,43.29
2022-08-09T06:05:49.967Z,43.11
2022-08-09T06:08:19.344Z,42.96
2022-08-09T06:10:55.091Z,43.10
2022-08-09T06:13:24.463Z,42.54
2022-08-09T06:15:53.185Z,42.36
2022-08-09T06:18:24.768Z,43.58
2022-08-09T06:20:57.398Z,44.59
2022-08-09T06:23:55.832Z,45.86
2022-08-09T06:26:20.046Z,47.74
2022-08-09T06:28:59.443Z,48.98
2022-08-09T06:31:40.430Z,49.46
2022-08-09T06:34:23.136Z,49.78
2022-08-09T06:36:58.953Z,50.40
2022-08-09T06:39:38.909Z,51.14
2022-08-09T06:42:19.688Z,51.81
2022-08-09T06:44:54.076Z,52.11
2022-08-09T06:47:23.685Z,51.84
2022-08-09T06:50:13.921Z,51.92
2022-08-09T06:52:47.070Z,52.03
2022-08-09T06:55:15.925Z,52.10
2022-08-09T06:58:02.520Z,51.66
2022-08-09T07:00:49.221Z,52.02
2022-08-09T07:03:27.960Z,52.30
2022-08-09T07:06:03.830Z,51.95
2022-08-09T07:08:35.288Z,51.47
2022-08-09T07:11:06.254Z,52.17
2022-08-09T07:13:45.552Z,52.21
2022-08-09T07:16:42.521Z,52.20
2022-08-09T07:19:15.153Z,52.27
2022-08-09T07:21:55.592Z,52.53
2022-08-09T07:24:31.918Z,52.62
2022-08-09T07:27:02.288Z,52.42
2022-08-09T07:29:38.107Z,52.42
2022-08-09T07:32:13.998Z,52.17
2022-08-09T07:34:44.869Z,52.38
2022-08-09T07:37:17.151Z,52.14
2022-08-09T07:39:50.024Z,52.32
2022-08-09T07:42:18.952Z,52.44
2022-08-09T07:45:06.328Z,52.30
2022-08-09T07:48:00.700Z,52.60
2022-08-09T07:50:33.048Z,52.50
2022-08-09T07:53:04.682Z,52.65
2022-08-09T07:56:02.903Z,52.17
2022-08-09T07:58:26.794Z,51.95
2022-08-09T08:01:06.331Z,51.86
2022-08-09T08:03:39.233Z,51.83
2022-08-09T08:06:14.408Z,51.92
2022-08-09T08:09:02.443Z,51.56
2022-08-09T08:12:11.321Z,51.60
2022-08-09T08:14:24.037Z,51.48
2022-08-09T08:17:12.095Z,51.23
2022-08-09T08:19:52.995Z,51.25
2022-08-09T08:22:37.955Z,51.20
2022-08-09T08:25:14.339Z,51.16
2022-08-09T08:27:43.304Z,51.17
2022-08-09T08:30:18.541Z,51.19
2022-08-09T08:32:53.624Z,50.92
2022-08-09T08:35:25.219Z,50.67
2022-08-09T08:38:11.456Z,50.27
2022-08-09T08:40:44.522Z,50.29
2022-08-09T08:43:20.771Z,50.29
2022-08-09T08:46:09.955Z,49.98
2022-08-09T08:48:53.398Z,49.59
2022-08-09T08:51:41.492Z,49.78
2022-08-09T08:54:20.620Z,49.79
2022-08-09T08:56:58.183Z,50.01
2022-08-09T08:59:46.731Z,49.76
2022-08-09T09:02:31.408Z,49.94
2022-08-09T09:05:10.201Z,49.35
2022-08-09T09:07:44.691Z,49.39
2022-08-09T09:10:13.719Z,49.24
2022-08-09T09:12:43.281Z,49.17
2022-08-09T09:15:12.329Z,49.38
2022-08-09T09:17:56.584Z,49.36
2022-08-09T09:20:27.642Z,49.40
2022-08-09T09:22:57.502Z,49.43
2022-08-09T09:26:01.787Z,47.71
2022-08-09T09:28:53.232Z,46.41
2022-08-09T09:32:06.934Z,49.65
2022-08-09T09:34:18.370Z,49.21
2022-08-09T09:36:54.182Z,48.98
2022-08-09T09:39:25.569Z,48.72
2022-08-09T09:42:24.450Z,48.95
2022-08-09T09:44:57.696Z,48.33
2022-08-09T09:47:28.596Z,46.46
2022-08-09T09:50:15.293Z,49.20
2022-08-09T09:52:56.889Z,48.82
2022-08-09T09:55:28.338Z,48.49
2022-08-09T09:58:16.681Z,48.19
2022-08-09T10:00:52.564Z,48.20
2022-08-09T10:03:42.931Z,46.78
2022-08-09T10:06:12.570Z,48.20
2022-08-09T10:08:54.801Z,48.37
2022-08-09T10:11:54.049Z,48.15
2022-08-09T10:14:27.425Z,47.83
2022-08-09T10:17:11.455Z,48.22
2022-08-09T10:19:52.006Z,48.22
2022-08-09T10:22:33.055Z,48.60
2022-08-09T10:25:11.397Z,47.93
2022-08-09T10:27:57.171Z,47.96
2022-08-09T10:34:08.869Z,48.66
2022-08-09T10:36:03.260Z,48.78
2022-08-09T10:38:54.390Z,48.75
2022-08-09T10:41:22.381Z,47.94
2022-08-09T10:44:02.030Z,47.39
2022-08-09T10:48:12.144Z,46.22
2022-08-09T10:50:14.907Z,46.79
2022-08-09T10:53:10.417Z,46.60
2022-08-09T10:55:58.494Z,47.13
2022-08-09T10:58:33.948Z,47.30
2022-08-09T11:03:02.915Z,47.53
2022-08-09T11:04:27.742Z,46.31
2022-08-09T11:07:27.335Z,43.07
2022-08-09T11:10:16.231Z,47.52
2022-08-09T11:13:49.421Z,46.51
2022-08-09T11:16:37.129Z,46.45
2022-08-09T11:19:11.197Z,47.06
2022-08-09T11:22:10.865Z,46.25
2022-08-09T11:25:08.132Z,45.27
2022-08-09T11:28:02.561Z,48.60
2022-08-09T11:30:36.811Z,47.49
2022-08-09T11:33:14.172Z,48.56
2022-08-09T11:35:50.145Z,48.16
2022-08-09T11:38:32.499Z,47.99
2022-08-09T11:41:05.959Z,48.20
2022-08-09T11:43:43.125Z,47.54
2022-08-09T11:46:11.490Z,47.17
2022-08-09T11:48:52.232Z,45.80
2022-08-09T11:52:56.796Z,46.36
2022-08-09T11:54:27.770Z,46.62
2022-08-09T11:57:47.443Z,45.70
2022-08-09T12:00:20.474Z,46.48
2022-08-09T12:02:53.503Z,46.44
2022-08-09T12:05:23.642Z,45.90
2022-08-09T12:07:52.663Z,46.13
2022-08-09T12:10:38.725Z,45.93
2022-08-09T12:14:07.428Z,46.20
2022-08-09T12:16:01.632Z,43.89
2022-08-09T12:18:33.596Z,45.81
2022-08-09T12:21:26.324Z,45.65
2022-08-09T12:24:02.850Z,46.55
2022-08-09T12:28:58.591Z,44.91
2022-08-09T12:29:43.900Z,47.46
2022-08-09T12:32:27.269Z,47.06
2022-08-09T12:35:02.657Z,46.18
2022-08-09T12:37:44.047Z,46.20
2022-08-09T12:40:18.900Z,45.73
2022-08-09T12:42:50.677Z,46.30
2022-08-09T12:45:34.409Z,45.91
2022-08-09T12:48:19.859Z,45.49
2022-08-09T12:50:57.602Z,45.30
2022-08-09T12:53:35.180Z,45.85
2022-08-09T12:56:15.441Z,45.68
2022-08-09T12:59:10.284Z,44.93
2022-08-09T13:01:42.688Z,45.09
2022-08-09T13:04:38.061Z,44.86
2022-08-09T13:07:14.426Z,44.59
2022-08-09T13:09:55.785Z,44.65
2022-08-09T13:12:29.379Z,44.17
2022-08-09T13:15:07.299Z,44.40
2022-08-09T13:18:02.860Z,44.68
2022-08-09T13:20:37.336Z,40.85
2022-08-09T13:24:17.158Z,45.19
2022-08-09T13:26:10.069Z,45.38
2022-08-09T13:28:39.562Z,45.05
2022-08-09T13:32:15.664Z,44.91
2022-08-09T13:33:58.156Z,44.68
2022-08-09T13:36:41.540Z,44.24
2022-08-09T13:41:50.896Z,44.41
2022-08-09T13:42:11.037Z,43.85
2022-08-09T13:44:42.173Z,44.49
2022-08-09T13:47:28.846Z,44.83
2022-08-09T13:50:01.820Z,44.84
2022-08-09T13:52:31.945Z,44.95
2022-08-09T13:55:04.956Z,45.09
2022-08-09T13:57:40.494Z,40.14
2022-08-09T14:00:13.449Z,45.27
2022-08-09T14:03:02.936Z,44.72
2022-08-09T14:05:59.122Z,44.96
2022-08-09T14:08:23.449Z,44.89
2022-08-09T14:10:52.888Z,44.81
2022-08-09T14:14:15.785Z,43.89
2022-08-09T14:16:16.498Z,44.21
2022-08-09T14:18:51.608Z,42.04
2022-08-09T14:21:22.292Z,43.78
2022-08-09T14:23:56.507Z,44.21
2022-08-09T14:26:30.436Z,43.92
2022-08-09T14:29:08.129Z,43.99
2022-08-09T14:31:54.762Z,44.30
2022-08-09T14:34:27.386Z,44.49
2022-08-09T14:37:06.440Z,44.54
2022-08-09T14:39:40.194Z,44.59
2022-08-09T14:42:30.565Z,44.64
2022-08-09T14:46:39.991Z,44.36
2022-08-09T14:48:00.229Z,43.54
2022-08-09T14:50:31.698Z,43.65
2022-08-09T14:53:01.658Z,43.89
2022-08-09T14:55:32.154Z,44.01
2022-08-09T14:58:02.935Z,44.05
2022-08-09T15:00:33.620Z,43.89
2022-08-09T15:03:03.666Z,44.00
2022-08-09T15:05:32.848Z,44.14
2022-08-09T15:08:01.091Z,44.03
2022-08-09T15:10:31.496Z,44.09
2022-08-09T15:13:01.528Z,44.36
2022-08-09T15:15:34.549Z,43.87
2022-08-09T15:18:12.443Z,43.54
2022-08-09T15:22:01.071Z,43.68
2022-08-09T15:24:00.708Z,42.79
2022-08-09T15:26:30.948Z,42.89
2022-08-09T15:29:04.118Z,43.11
2022-08-09T15:31:41.276Z,43.53
2022-08-09T15:34:31.608Z,43.57
2022-08-09T15:36:59.554Z,43.41
2022-08-09T15:39:34.607Z,44.16
2022-08-09T15:42:12.380Z,44.42
2022-08-09T15:44:43.133Z,44.17
2022-08-09T15:47:14.046Z,43.95
2022-08-09T15:50:00.742Z,43.86
2022-08-09T15:52:31.637Z,43.93
2022-08-09T15:54:59.882Z,44.12
2022-08-09T15:57:35.680Z,43.94
2022-08-09T16:00:17.019Z,43.87
2022-08-09T16:02:56.489Z,43.76
2022-08-09T16:05:47.158Z,42.47
2022-08-09T16:08:30.749Z,43.49
2022-08-09T16:11:01.680Z,43.37
2022-08-09T16:14:04.709Z,42.65
2022-08-09T16:16:18.843Z,43.18
2022-08-09T16:18:48.851Z,43.29
2022-08-09T16:21:25.191Z,43.49
2022-08-09T16:23:55.606Z,43.82
2022-08-09T16:26:34.594Z,43.65
2022-08-09T16:29:11.368Z,40.69
2022-08-09T16:32:19.794Z,43.07
2022-08-09T16:34:55.703Z,43.79
2022-08-09T16:37:53.094Z,43.50
2022-08-09T16:40:09.752Z,43.89
2022-08-09T16:42:38.761Z,43.62
2022-08-09T16:45:13.776Z,43.66
2022-08-09T16:48:41.279Z,43.11
2022-08-09T16:50:34.154Z,43.48
2022-08-09T16:53:05.572Z,43.78
2022-08-09T16:55:58.548Z,43.73
2022-08-09T16:58:21.819Z,43.15
2022-08-09T17:00:50.817Z,43.79
2022-08-09T17:03:21.481Z,43.44
2022-08-09T17:06:08.403Z,43.30
2022-08-09T17:08:59.045Z,43.20
2022-08-09T17:11:40.076Z,43.09
2022-08-09T17:14:25.901Z,43.63
2022-08-09T17:17:01.126Z,43.33
2022-08-09T17:19:46.338Z,43.25
2022-08-09T17:22:24.037Z,43.55
2022-08-09T17:25:09.876Z,43.29
2022-08-09T17:27:49.590Z,43.42
2022-08-09T17:30:26.516Z,43.76
2022-08-09T17:33:01.393Z,44.08
2022-08-09T17:35:35.160Z,43.18
2022-08-09T17:38:14.411Z,43.52
2022-08-09T17:40:53.944Z,43.34
2022-08-09T17:43:33.563Z,43.47
2022-08-09T17:46:06.717Z,43.72
2022-08-09T17:48:39.363Z,43.53
2022-08-09T17:51:19.540Z,43.96
2022-08-09T17:53:54.700Z,43.93
2022-08-09T17:56:27.055Z,44.02
2022-08-09T17:58:58.898Z,43.86
2022-08-09T18:01:57.647Z,44.15
2022-08-09T18:04:16.927Z,44.38
2022-08-09T18:06:54.631Z,44.66
2022-08-09T18:09:40.261Z,44.59
2022-08-09T18:12:18.140Z,44.27
2022-08-09T18:14:50.041Z,44.20
2022-08-09T18:17:27.161Z,43.97
2022-08-09T18:20:59.346Z,44.50
2022-08-09T18:23:05.832Z,44.08
2022-08-09T18:25:52.501Z,44.34
2022-08-09T18:30:35.443Z,44.24
2022-08-09T18:31:14.683Z,43.88
2022-08-09T18:33:48.850Z,43.99
2022-08-09T18:36:26.099Z,43.96
2022-08-09T18:39:02.466Z,44.04
2022-08-09T18:41:34.790Z,44.40
2022-08-09T18:44:12.915Z,44.20
2022-08-09T18:46:49.152Z,44.46
2022-08-09T18:49:27.970Z,44.55
2022-08-09T18:52:00.373Z,44.15
2022-08-09T18:54:30.087Z,44.32
2022-08-09T18:57:06.364Z,44.08
2022-08-09T18:59:37.498Z,44.27
2022-08-09T19:02:16.692Z,44.47
2022-08-09T19:04:47.866Z,44.45
2022-08-09T19:07:31.839Z,44.46
2022-08-09T19:10:13.727Z,44.21
2022-08-09T19:12:50.311Z,44.27
2022-08-09T19:15:26.994Z,44.36
2022-08-09T19:17:58.502Z,44.73
2022-08-09T19:20:34.169Z,44.51
2022-08-09T19:23:07.452Z,44.53
2022-08-09T19:25:41.963Z,44.72
2022-08-09T19:28:28.682Z,44.90
2022-08-09T19:30:57.325Z,44.87
2022-08-09T19:33:25.240Z,45.16
2022-08-09T19:35:57.459Z,45.27
2022-08-09T19:38:27.567Z,45.23
2022-08-09T19:40:57.716Z,45.41
2022-08-09T19:43:58.227Z,45.45
2022-08-09T19:46:34.127Z,45.54
2022-08-09T19:50:06.766Z,45.65
2022-08-09T19:51:55.750Z,45.75
2022-08-09T19:54:24.996Z,45.85
2022-08-09T19:56:53.437Z,45.83
2022-08-09T19:59:59.595Z,46.06
2022-08-09T20:04:07.039Z,46.09
2022-08-09T20:05:01.431Z,46.19
2022-08-09T20:07:56.955Z,46.30
2022-08-09T20:10:22.046Z,46.53
2022-08-09T20:12:52.039Z,46.48
2022-08-09T20:16:35.316Z,46.59
2022-08-09T20:18:10.304Z,46.64
2022-08-09T20:20:40.240Z,46.94
2022-08-09T20:23:09.396Z,46.77
2022-08-09T20:25:49.625Z,46.64
2022-08-09T20:28:28.072Z,46.97
2022-08-09T20:31:04.956Z,46.85
2022-08-09T20:33:39.119Z,46.92
2022-08-09T20:36:10.383Z,46.92
2022-08-09T20:39:17.114Z,46.94
2022-08-09T20:41:35.133Z,47.07
2022-08-09T20:44:06.870Z,47.10
2022-08-09T20:46:43.083Z,47.01
2022-08-09T20:49:13.576Z,47.12
2022-08-09T20:51:42.422Z,47.30
2022-08-09T20:54:16.412Z,47.03
2022-08-09T20:56:46.933Z,47.23
2022-08-09T20:59:16.817Z,47.10
2022-08-09T21:01:50.730Z,47.21
2022-08-09T21:05:51.579Z,47.34
2022-08-09T21:07:11.942Z,47.60
2022-08-09T21:09:45.523Z,47.60
2022-08-09T21:12:23.376Z,47.63
2022-08-09T21:14:51.229Z,47.89
2022-08-09T21:18:11.158Z,48.21
2022-08-09T21:20:23.109Z,47.85
2022-08-09T21:22:54.842Z,47.78
2022-08-09T21:25:44.372Z,48.00
2022-08-09T21:28:33.516Z,47.95
2022-08-09T21:31:01.986Z,48.19
2022-08-09T21:33:50.534Z,48.09
2022-08-09T21:36:20.872Z,48.04
2022-08-09T21:38:57.194Z,48.11
2022-08-09T21:42:04.148Z,48.03
2022-08-09T21:44:33.294Z,48.19
2022-08-09T21:47:04.967Z,48.26
2022-08-09T21:49:39.449Z,48.13
2022-08-09T21:52:17.627Z,48.12
2022-08-09T21:55:03.112Z,48.26
2022-08-09T21:57:39.071Z,48.42
2022-08-09T22:00:25.277Z,48.29
2022-08-09T22:02:58.810Z,48.28
2022-08-09T22:05:35.392Z,48.65
2022-08-09T22:08:04.703Z,48.65
2022-08-09T22:10:33.221Z,48.59
2022-08-09T22:13:07.226Z,48.85
2022-08-09T22:15:39.319Z,48.90
2022-08-09T22:18:12.074Z,48.99
2022-08-09T22:20:42.292Z,49.07
2022-08-09T22:23:10.575Z,49.06
2022-08-09T22:26:06.548Z,49.29
2022-08-09T22:28:33.040Z,49.27
2022-08-09T22:31:02.103Z,49.31
2022-08-09T22:33:48.545Z,49.26
2022-08-09T22:36:19.401Z,49.66
2022-08-09T22:38:48.542Z,49.79
2022-08-09T22:41:16.494Z,49.83
2022-08-09T22:44:01.873Z,49.79
2022-08-09T22:48:12.887Z,50.00
2022-08-09T22:49:19.972Z,50.12
2022-08-09T22:51:56.680Z,49.83
2022-08-09T22:54:27.325Z,50.16
2022-08-09T22:56:56.623Z,50.17
2022-08-09T22:59:57.611Z,50.13
2022-08-09T23:02:16.010Z,50.40
2022-08-09T23:04:53.769Z,50.61
2022-08-09T23:08:23.319Z,50.49
2022-08-09T23:10:31.543Z,50.58
2022-08-09T23:12:59.612Z,50.82
2022-08-09T23:15:28.441Z,50.71
2022-08-09T23:17:57.084Z,50.91
2022-08-09T23:20:26.155Z,50.87
2022-08-09T23:22:55.612Z,51.07
2022-08-09T23:25:23.580Z,51.30
2022-08-09T23:27:59.650Z,51.55
2022-08-09T23:30:39.458Z,51.57
2022-08-09T23:33:17.152Z,51.70
2022-08-09T23:36:05.732Z,51.59
2022-08-09T23:38:34.458Z,51.66
2022-08-09T23:41:03.173Z,51.66
2022-08-09T23:43:31.156Z,51.97
2022-08-09T23:45:59.290Z,52.00
2022-08-09T23:48:27.555Z,51.78
2022-08-09T23:50:55.581Z,52.04
2022-08-09T23:53:23.552Z,52.16
2022-08-09T23:55:57.641Z,52.42
2022-08-09T23:58:29.688Z,52.57
